createdAt,value
2023-02-06T00:00:56.336Z,11.25
2023-02-06T00:03:42.024Z,10.45
2023-02-06T00:06:27.656Z,10.43
2023-02-06T00:09:13.146Z,11.05
2023-02-06T00:11:58.686Z,10.68
2023-02-06T00:14:44.192Z,10.35
2023-02-06T00:17:29.755Z,8.95
2023-02-06T00:20:15.242Z,11.02
2023-02-06T00:23:00.800Z,8.63
2023-02-06T00:25:46.372Z,9.50
2023-02-06T00:28:31.786Z,10.07
2023-02-06T00:31:17.540Z,10.73
2023-02-06T00:34:03.873Z,10.15
2023-02-06T00:36:51.860Z,10.55
2023-02-06T00:39:37.327Z,9.70
2023-02-06T00:42:22.715Z,10.30
2023-02-06T00:45:08.893Z,9.82
2023-02-06T00:47:54.110Z,9.38
2023-02-06T00:50:39.499Z,8.77
2023-02-06T00:53:25.074Z,8.85
2023-02-06T00:56:10.707Z,8.73
2023-02-06T00:58:56.362Z,7.22
2023-02-06T01:01:42.011Z,7.97
2023-02-06T01:04:27.438Z,8.35
2023-02-06T01:07:13.052Z,8.00
2023-02-06T01:09:58.273Z,6.32
2023-02-06T01:12:44.436Z,5.95
2023-02-06T01:15:31.731Z,8.00
2023-02-06T01:18:17.032Z,7.65
2023-02-06T01:21:06.888Z,7.80
2023-02-06T01:26:38.690Z,8.50
2023-02-06T01:29:24.304Z,9.68
2023-02-06T01:32:10.003Z,8.40
2023-02-06T01:34:55.686Z,8.65
2023-02-06T01:37:41.854Z,9.32
2023-02-06T01:40:27.280Z,9.00
2023-02-06T01:43:18.160Z,8.45
2023-02-06T01:46:05.559Z,8.13
2023-02-06T01:48:54.517Z,6.57
2023-02-06T01:51:41.068Z,6.70
2023-02-06T01:54:27.053Z,8.25
2023-02-06T01:57:13.617Z,6.47
2023-02-06T02:00:04.341Z,7.07
2023-02-06T02:02:56.835Z,7.18
2023-02-06T02:05:43.358Z,6.95
2023-02-06T02:08:37.186Z,6.80
2023-02-06T02:11:35.465Z,7.30
2023-02-06T02:14:20.795Z,7.00
2023-02-06T02:17:26.225Z,6.60
2023-02-06T02:20:14.660Z,6.60
2023-02-06T02:23:39.883Z,6.97
2023-02-06T02:26:43.480Z,6.20
2023-02-06T02:29:50.220Z,5.40
2023-02-06T02:32:50.663Z,5.43
2023-02-06T02:38:52.857Z,4.95
2023-02-06T02:41:41.209Z,5.10
2023-02-06T02:45:14.733Z,5.60
2023-02-06T02:48:18.894Z,5.68
2023-02-06T02:51:07.791Z,6.13
2023-02-06T02:53:55.828Z,5.90
2023-02-06T02:56:42.500Z,6.15
2023-02-06T02:59:36.349Z,5.60
2023-02-06T03:02:27.528Z,5.70
2023-02-06T03:05:18.451Z,5.47
2023-02-06T03:08:05.258Z,5.20
2023-02-06T03:11:14.791Z,4.95
2023-02-06T03:14:09.126Z,5.28
2023-02-06T03:17:04.670Z,5.30
2023-02-06T03:19:55.193Z,5.30
2023-02-06T03:22:42.082Z,4.53
2023-02-06T03:25:36.161Z,5.03
2023-02-06T03:28:28.459Z,5.00
2023-02-06T03:31:17.890Z,5.22
2023-02-06T03:34:22.096Z,5.35
2023-02-06T03:37:07.903Z,5.05
2023-02-06T03:39:53.610Z,5.53
2023-02-06T03:42:44.952Z,5.05
2023-02-06T03:45:34.314Z,5.28
2023-02-06T03:48:27.393Z,4.75
2023-02-06T03:51:19.435Z,5.82
2023-02-06T03:54:06.470Z,4.65
2023-02-06T03:56:57.885Z,5.38
2023-02-06T03:59:42.994Z,4.85
2023-02-06T04:02:29.690Z,5.10
2023-02-06T04:05:17.122Z,5.13
2023-02-06T04:08:02.773Z,4.65
2023-02-06T04:10:48.290Z,4.97
2023-02-06T04:13:33.808Z,5.43
2023-02-06T04:16:19.461Z,5.53
2023-02-06T04:19:04.981Z,6.00
2023-02-06T04:21:50.313Z,6.22
2023-02-06T04:24:36.781Z,6.05
2023-02-06T04:27:22.100Z,6.07
2023-02-06T04:30:08.245Z,5.78
2023-02-06T04:32:53.535Z,5.88
2023-02-06T04:35:39.224Z,4.85
2023-02-06T04:38:24.788Z,6.18
2023-02-06T04:41:10.449Z,5.97
2023-02-06T04:43:56.169Z,6.18
2023-02-06T04:46:43.274Z,5.88
2023-02-06T04:49:28.565Z,6.13
2023-02-06T04:52:14.046Z,6.45
2023-02-06T04:54:59.533Z,6.55
2023-02-06T04:57:45.145Z,5.85
2023-02-06T05:00:30.643Z,5.68
2023-02-06T05:03:16.083Z,5.80
2023-02-06T05:06:02.912Z,6.38
2023-02-06T05:08:48.486Z,5.53
2023-02-06T05:11:33.960Z,5.30
2023-02-06T05:14:19.665Z,5.55
2023-02-06T05:17:05.072Z,5.47
2023-02-06T05:19:50.833Z,5.18
2023-02-06T05:22:36.346Z,6.13
2023-02-06T05:25:21.916Z,5.70
2023-02-06T05:28:07.620Z,6.03
2023-02-06T05:30:53.634Z,5.97
2023-02-06T05:33:39.116Z,6.65
2023-02-06T05:36:24.691Z,5.90
2023-02-06T05:39:10.308Z,6.32
2023-02-06T05:41:55.854Z,6.60
2023-02-06T05:44:41.247Z,6.18
2023-02-06T05:47:26.923Z,6.97
2023-02-06T05:50:12.649Z,7.28
2023-02-06T05:52:58.290Z,6.13
2023-02-06T05:55:43.950Z,6.38
2023-02-06T05:58:29.407Z,7.10
2023-02-06T06:01:14.863Z,6.60
2023-02-06T06:04:00.337Z,7.43
2023-02-06T06:06:45.765Z,6.88
2023-02-06T06:09:31.388Z,6.28
2023-02-06T06:12:16.911Z,6.35
2023-02-06T06:15:02.527Z,6.47
2023-02-06T06:17:48.099Z,9.43
2023-02-06T06:20:33.618Z,9.00
2023-02-06T06:23:19.474Z,8.32
2023-02-06T06:26:05.504Z,6.93
2023-02-06T06:28:54.248Z,7.13
2023-02-06T06:31:39.831Z,7.07
2023-02-06T06:34:26.179Z,7.72
2023-02-06T06:37:11.546Z,9.35
2023-02-06T06:39:56.925Z,9.68
2023-02-06T06:42:42.381Z,8.00
2023-02-06T06:45:27.916Z,7.00
2023-02-06T06:48:13.092Z,7.95
2023-02-06T06:50:58.840Z,8.52
2023-02-06T06:53:44.141Z,8.85
2023-02-06T06:56:29.564Z,8.73
2023-02-06T06:59:15.039Z,9.25
2023-02-06T07:02:00.442Z,11.20
2023-02-06T07:04:46.158Z,10.68
2023-02-06T07:07:31.633Z,10.38
2023-02-06T07:10:17.220Z,10.35
2023-02-06T07:13:02.696Z,10.90
2023-02-06T07:15:48.153Z,9.68
2023-02-06T07:18:33.880Z,10.77
2023-02-06T07:21:19.853Z,8.63
2023-02-06T07:24:05.848Z,7.70
2023-02-06T07:26:51.031Z,9.55
2023-02-06T07:29:37.744Z,10.45
2023-02-06T07:32:23.429Z,9.45
2023-02-06T07:35:08.993Z,9.98
2023-02-06T07:37:54.648Z,10.60
2023-02-06T07:40:45.056Z,13.23
2023-02-06T07:43:31.483Z,13.45
2023-02-06T07:46:16.852Z,14.43
2023-02-06T07:49:02.296Z,14.52
2023-02-06T07:51:47.651Z,14.32
2023-02-06T07:54:33.266Z,16.55
2023-02-06T07:57:20.765Z,17.25
2023-02-06T08:00:07.946Z,17.55
2023-02-06T08:02:59.243Z,16.40
2023-02-06T08:05:44.855Z,16.63
2023-02-06T08:08:30.490Z,15.05
2023-02-06T08:11:19.153Z,14.45
2023-02-06T08:14:04.741Z,16.17
2023-02-06T08:16:50.481Z,15.68
2023-02-06T08:19:35.951Z,16.52
2023-02-06T08:22:21.552Z,17.77
2023-02-06T08:25:07.576Z,16.25
2023-02-06T08:27:56.795Z,18.10
2023-02-06T08:30:42.284Z,16.43
2023-02-06T08:33:27.841Z,15.07
2023-02-06T08:36:13.910Z,15.50
2023-02-06T08:39:00.588Z,15.80
2023-02-06T08:41:45.799Z,15.70
2023-02-06T08:44:31.288Z,17.90
2023-02-06T08:47:16.793Z,15.60
2023-02-06T08:50:03.577Z,11.18
2023-02-06T08:52:49.350Z,10.30
2023-02-06T08:55:34.828Z,10.93
2023-02-06T08:58:20.417Z,8.60
2023-02-06T09:01:13.748Z,8.35
2023-02-06T09:04:01.556Z,7.10
2023-02-06T09:06:49.015Z,6.00
2023-02-06T09:09:34.505Z,5.95
2023-02-06T09:12:19.982Z,6.05
2023-02-06T09:15:06.011Z,5.70
2023-02-06T09:17:51.393Z,5.75
2023-02-06T09:20:36.922Z,5.65
2023-02-06T09:23:22.276Z,6.55
2023-02-06T09:26:08.035Z,5.50
2023-02-06T09:28:58.335Z,5.82
2023-02-06T09:31:44.421Z,6.20
2023-02-06T09:34:30.327Z,5.50
2023-02-06T09:37:15.802Z,5.65
2023-02-06T09:40:01.220Z,5.72
2023-02-06T09:42:47.642Z,5.82
2023-02-06T09:45:33.525Z,5.43
2023-02-06T09:48:26.318Z,5.32
2023-02-06T09:51:33.840Z,5.53
2023-02-06T09:54:34.227Z,4.90
2023-02-06T09:57:33.142Z,5.15
2023-02-06T10:00:27.710Z,5.32
2023-02-06T10:03:39.794Z,5.28
2023-02-06T10:06:32.666Z,4.57
2023-02-06T10:09:27.154Z,5.78
2023-02-06T10:12:19.625Z,5.10
2023-02-06T10:15:14.796Z,5.43
2023-02-06T10:18:21.260Z,4.88
2023-02-06T10:21:21.022Z,4.82
2023-02-06T10:24:29.017Z,4.93
2023-02-06T10:27:15.106Z,4.88
2023-02-06T10:30:01.533Z,4.57
2023-02-06T10:33:11.808Z,4.93
2023-02-06T10:36:18.231Z,4.80
2023-02-06T10:39:18.055Z,4.15
2023-02-06T10:45:25.977Z,4.85
2023-02-06T10:48:29.186Z,4.80
2023-02-06T10:51:30.627Z,5.00
2023-02-06T10:54:22.113Z,4.50
2023-02-06T10:57:21.646Z,4.70
2023-02-06T11:00:24.350Z,5.70
2023-02-06T11:03:16.534Z,4.82
2023-02-06T11:06:03.073Z,4.68
2023-02-06T11:08:48.950Z,5.50
2023-02-06T11:11:48.579Z,4.80
2023-02-06T11:14:38.773Z,5.80
2023-02-06T11:17:28.244Z,5.60
2023-02-06T11:20:28.051Z,5.10
2023-02-06T11:23:21.271Z,5.05
2023-02-06T11:26:15.595Z,5.85
2023-02-06T11:29:17.815Z,5.18
2023-02-06T11:32:08.603Z,5.72
2023-02-06T11:34:59.214Z,5.35
2023-02-06T11:37:44.657Z,6.28
2023-02-06T11:40:30.144Z,6.03
2023-02-06T11:43:25.054Z,6.07
2023-02-06T11:46:14.046Z,6.40
2023-02-06T11:49:07.264Z,6.45
2023-02-06T11:52:03.675Z,6.30
2023-02-06T11:54:54.626Z,6.25
2023-02-06T11:57:40.504Z,5.43
2023-02-06T12:00:26.098Z,6.65
2023-02-06T12:03:49.920Z,6.10
2023-02-06T12:06:38.429Z,5.95
2023-02-06T12:09:24.426Z,6.25
2023-02-06T12:12:30.329Z,5.93
2023-02-06T12:15:45.590Z,6.30
2023-02-06T12:18:36.750Z,5.57
2023-02-06T12:21:51.018Z,6.00
2023-02-06T12:24:41.033Z,6.10
2023-02-06T12:30:43.616Z,5.85
2023-02-06T12:33:36.242Z,5.60
2023-02-06T12:36:25.687Z,6.22
2023-02-06T12:39:20.042Z,6.35
2023-02-06T12:42:32.432Z,6.63
2023-02-06T12:45:35.079Z,6.03
2023-02-06T12:48:39.455Z,6.72
2023-02-06T12:51:32.105Z,5.90
2023-02-06T12:54:28.306Z,6.47
2023-02-06T12:57:21.653Z,6.43
2023-02-06T13:00:25.564Z,6.45
2023-02-06T13:03:32.956Z,5.85
2023-02-06T13:06:28.616Z,6.25
2023-02-06T13:09:41.507Z,6.43
2023-02-06T13:12:32.394Z,5.80
2023-02-06T13:15:24.815Z,5.88
2023-02-06T13:18:36.915Z,6.80
2023-02-06T13:21:33.412Z,5.72
2023-02-06T13:24:19.874Z,5.82
2023-02-06T13:27:08.485Z,6.22
2023-02-06T13:29:54.101Z,6.38
2023-02-06T13:32:42.503Z,7.32
2023-02-06T13:35:30.157Z,7.72
2023-02-06T13:38:24.647Z,6.72
2023-02-06T13:41:14.000Z,7.68
2023-02-06T13:44:06.700Z,7.88
2023-02-06T13:47:08.577Z,7.65
2023-02-06T13:50:17.054Z,6.57
2023-02-06T13:53:21.893Z,7.07
2023-02-06T13:56:19.076Z,7.03
2023-02-06T13:59:13.895Z,6.05
2023-02-06T14:02:16.677Z,5.43
2023-02-06T14:05:06.527Z,4.13
2023-02-06T14:08:10.975Z,3.45
2023-02-06T14:11:18.363Z,4.18
2023-02-06T14:14:47.565Z,3.95
2023-02-06T14:17:51.617Z,3.55
2023-02-06T14:20:43.290Z,4.00
2023-02-06T14:23:55.808Z,4.22
2023-02-06T14:27:05.513Z,3.83
2023-02-06T14:30:00.098Z,4.53
2023-02-06T14:32:45.837Z,3.70
2023-02-06T14:35:57.108Z,5.05
2023-02-06T14:38:45.757Z,4.82
2023-02-06T14:41:32.271Z,4.55
2023-02-06T14:44:21.439Z,4.90
2023-02-06T14:47:12.922Z,4.60
2023-02-06T14:50:00.152Z,4.50
2023-02-06T14:52:51.727Z,4.45
2023-02-06T14:55:41.235Z,4.25
2023-02-06T14:58:29.655Z,4.47
2023-02-06T15:01:18.522Z,4.40
2023-02-06T15:04:16.336Z,4.40
2023-02-06T15:07:03.674Z,4.30
2023-02-06T15:09:57.933Z,3.92
2023-02-06T15:12:51.667Z,3.75
2023-02-06T15:15:37.139Z,4.47
2023-02-06T15:18:23.547Z,4.63
2023-02-06T15:21:15.779Z,4.50
2023-02-06T15:24:25.566Z,4.05
2023-02-06T15:27:26.726Z,4.97
2023-02-06T15:30:25.743Z,5.30
2023-02-06T15:33:19.979Z,5.17
2023-02-06T15:36:05.845Z,4.75
2023-02-06T15:38:52.217Z,5.18
2023-02-06T15:41:40.699Z,5.15
2023-02-06T15:44:33.931Z,4.65
2023-02-06T15:47:21.298Z,5.05
2023-02-06T15:50:10.514Z,4.82
2023-02-06T15:52:56.297Z,5.35
2023-02-06T15:55:42.487Z,5.10
2023-02-06T15:58:28.250Z,4.82
2023-02-06T16:01:20.376Z,5.13
2023-02-06T16:04:22.020Z,4.93
2023-02-06T16:07:16.375Z,4.22
2023-02-06T16:10:08.247Z,4.45
2023-02-06T16:12:55.874Z,4.93
2023-02-06T16:16:20.754Z,4.20
2023-02-06T16:19:37.523Z,3.78
2023-02-06T16:22:26.764Z,3.75
2023-02-06T16:25:23.097Z,3.65
2023-02-06T16:28:29.296Z,3.78
2023-02-06T16:31:15.452Z,4.03
2023-02-06T16:34:03.241Z,3.90
2023-02-06T16:36:48.975Z,4.05
2023-02-06T16:39:34.349Z,3.35
2023-02-06T16:42:23.074Z,3.83
2023-02-06T16:45:28.165Z,3.35
2023-02-06T16:48:17.103Z,3.10
2023-02-06T16:51:02.322Z,4.00
2023-02-06T16:53:49.525Z,3.83
2023-02-06T16:56:37.921Z,4.20
2023-02-06T16:59:23.541Z,3.90
2023-02-06T17:02:12.841Z,4.13
2023-02-06T17:04:58.535Z,4.88
2023-02-06T17:07:44.048Z,4.43
2023-02-06T17:10:29.898Z,4.30
2023-02-06T17:13:16.114Z,4.95
2023-02-06T17:16:01.334Z,4.15
2023-02-06T17:18:47.843Z,4.50
2023-02-06T17:21:33.310Z,4.63
2023-02-06T17:24:18.849Z,4.55
2023-02-06T17:27:06.948Z,4.32
2023-02-06T17:29:53.715Z,3.83
2023-02-06T17:32:39.555Z,3.88
2023-02-06T17:35:25.449Z,3.80
2023-02-06T17:38:11.351Z,3.63
2023-02-06T17:40:57.012Z,3.50
2023-02-06T17:43:42.445Z,2.97
2023-02-06T17:46:27.919Z,2.95
2023-02-06T17:49:14.195Z,2.40
2023-02-06T17:51:59.861Z,2.58
2023-02-06T17:54:45.391Z,3.13
2023-02-06T17:57:31.073Z,3.05
2023-02-06T18:00:19.087Z,2.35
2023-02-06T18:03:05.383Z,3.00
2023-02-06T18:05:59.092Z,2.95
2023-02-06T18:08:45.503Z,3.28
2023-02-06T18:11:31.541Z,3.83
2023-02-06T18:14:17.247Z,2.75
2023-02-06T18:17:05.304Z,2.97
2023-02-06T18:19:50.623Z,2.63
2023-02-06T18:22:41.076Z,2.58
2023-02-06T18:25:26.870Z,2.72
2023-02-06T18:28:16.621Z,2.58
2023-02-06T18:31:02.392Z,2.90
2023-02-06T18:33:48.363Z,3.10
2023-02-06T18:36:37.663Z,3.30
2023-02-06T18:39:23.252Z,3.90
2023-02-06T18:42:28.985Z,6.28
2023-02-06T18:45:14.577Z,3.85
2023-02-06T18:48:01.869Z,3.35
2023-02-06T18:50:47.613Z,2.75
2023-02-06T18:53:33.233Z,2.53
2023-02-06T18:56:19.348Z,2.70
2023-02-06T18:59:05.204Z,2.78
2023-02-06T19:01:51.999Z,3.03
2023-02-06T19:04:37.562Z,3.30
2023-02-06T19:07:23.080Z,3.90
2023-02-06T19:10:12.805Z,3.47
2023-02-06T19:13:01.319Z,3.30
2023-02-06T19:15:46.846Z,3.90
2023-02-06T19:18:38.741Z,4.45
2023-02-06T19:21:26.295Z,4.70
2023-02-06T19:24:14.004Z,3.17
2023-02-06T19:26:59.425Z,3.40
2023-02-06T19:29:45.290Z,3.63
2023-02-06T19:32:32.171Z,3.60
2023-02-06T19:35:18.857Z,3.15
2023-02-06T19:38:04.442Z,2.97
2023-02-06T19:40:50.128Z,3.47
2023-02-06T19:43:36.330Z,2.97
2023-02-06T19:46:24.430Z,3.13
2023-02-06T19:49:11.027Z,3.17
2023-02-06T19:51:56.744Z,2.83
2023-02-06T19:54:42.252Z,2.53
2023-02-06T19:57:27.839Z,3.22
2023-02-06T20:00:13.986Z,3.10
2023-02-06T20:02:59.369Z,2.63
2023-02-06T20:05:44.882Z,3.45
2023-02-06T20:08:30.941Z,3.67
2023-02-06T20:11:19.227Z,4.82
2023-02-06T20:14:05.434Z,3.13
2023-02-06T20:16:51.568Z,3.35
2023-02-06T20:19:37.084Z,3.22
2023-02-06T20:22:22.607Z,3.00
2023-02-06T20:25:08.838Z,3.33
2023-02-06T20:27:54.176Z,2.80
2023-02-06T20:30:40.299Z,2.65
2023-02-06T20:33:26.470Z,2.63
2023-02-06T20:36:21.435Z,3.85
2023-02-06T20:39:07.118Z,17.80
2023-02-06T20:41:53.053Z,5.65
2023-02-06T20:44:38.422Z,4.50
2023-02-06T20:47:24.070Z,4.15
2023-02-06T20:50:09.963Z,4.60
2023-02-06T20:52:55.678Z,4.57
2023-02-06T20:55:44.444Z,3.67
2023-02-06T20:58:30.607Z,6.95
2023-02-06T21:01:18.193Z,4.30
2023-02-06T21:04:08.877Z,3.25
2023-02-06T21:06:57.579Z,4.85
2023-02-06T21:09:43.161Z,4.05
2023-02-06T21:12:28.310Z,4.20
2023-02-06T21:15:13.934Z,4.78
2023-02-06T21:17:59.473Z,4.18
2023-02-06T21:20:45.623Z,3.80
2023-02-06T21:23:30.988Z,4.90
2023-02-06T21:26:18.155Z,4.95
2023-02-06T21:29:06.179Z,3.92
2023-02-06T21:32:00.587Z,4.05
2023-02-06T21:34:52.918Z,4.22
2023-02-06T21:37:38.510Z,6.95
2023-02-06T21:40:24.001Z,9.70
2023-02-06T21:43:09.728Z,5.28
2023-02-06T21:45:57.847Z,4.93
2023-02-06T21:48:43.421Z,7.03
2023-02-06T21:51:28.868Z,8.18
2023-02-06T21:54:14.380Z,10.52
2023-02-06T21:56:59.934Z,6.85
2023-02-06T21:59:45.552Z,5.85
2023-02-06T22:02:31.020Z,9.30
2023-02-06T22:05:16.553Z,7.50
2023-02-06T22:08:02.118Z,9.50
2023-02-06T22:10:47.547Z,8.95
2023-02-06T22:13:33.150Z,5.22
2023-02-06T22:16:22.432Z,7.72
2023-02-06T22:19:10.279Z,5.68
2023-02-06T22:21:56.023Z,5.85
2023-02-06T22:24:41.633Z,6.82
2023-02-06T22:27:27.224Z,5.80
2023-02-06T22:30:13.211Z,5.25
2023-02-06T22:32:58.584Z,5.32
2023-02-06T22:35:43.957Z,5.03
2023-02-06T22:38:29.374Z,5.70
2023-02-06T22:41:16.875Z,5.80
2023-02-06T22:44:02.367Z,5.30
2023-02-06T22:46:52.538Z,5.55
2023-02-06T22:49:38.142Z,4.82
2023-02-06T22:52:42.877Z,4.63
2023-02-06T22:55:49.428Z,4.43
2023-02-06T22:58:34.690Z,4.65
2023-02-06T23:01:22.812Z,4.90
2023-02-06T23:04:14.163Z,4.35
2023-02-06T23:06:59.656Z,4.32
2023-02-06T23:09:45.154Z,4.53
2023-02-06T23:12:30.615Z,4.40
2023-02-06T23:15:16.305Z,4.70
2023-02-06T23:18:01.652Z,4.22
2023-02-06T23:20:53.019Z,4.55
2023-02-06T23:23:40.039Z,4.70
2023-02-06T23:26:25.600Z,4.47
2023-02-06T23:29:17.199Z,4.45
2023-02-06T23:32:02.681Z,4.60
2023-02-06T23:34:48.148Z,4.47
2023-02-06T23:37:34.848Z,4.10
2023-02-06T23:40:20.379Z,4.55
2023-02-06T23:43:06.755Z,4.82
2023-02-06T23:45:51.914Z,4.25
2023-02-06T23:48:38.079Z,4.40
2023-02-06T23:51:24.107Z,5.05
2023-02-06T23:54:09.965Z,4.18
2023-02-06T23:56:55.669Z,4.90
2023-02-06T23:59:40.954Z,4.13
